Promontory, Utah
Current Conditions -  °F | °C
As of 5:15 PM on Wednesday 28 Jan 2015 (Local Time) from KBMC Reporting Station
Overcast Overcast  
Wind Chill: 45°   Ceiling: 4600
Heat Index: 45°   Visibility: 10mi
Dew Point: 39°   Wind: 0mph
Humidity: 78%   Direction: NA
Pressure: 30.32"   Gusts: NA
Location:  41.5038°N, 112.48°W
Report Text: KBMC 290015Z AUTO 00000KT 10SM SCT038 OVC046 07/04 A3032 RMK AO1 T00730037
Loading
Personal Weather Stations






























Interactive Weather Map New forecast layout! Learn more

10-Day Weather Forecast

Advertisements
Track Severe Weather on mobile